Time;durP1;ratioP1;P1;durP2;ratioP2;P2;SDS_P1;SDS_P2;PMS_P1;PMS_P2;Temp;Humidity;BMP_temperature;BMP_pressure;BME280_temperature;BME280_humidity;BME280_pressure;Samples;Min_cycle;Max_cycle;Signal;HPM_P1;HPM_P2
2021/09/05 00:02:07;;;;;;;15.83;8.08;;;;;;;9.44;76.86;101137.23;1859820;77;20903;-67
2021/09/05 00:04:34;;;;;;;15.75;7.62;;;;;;;9.43;76.82;101135.55;1860201;77;20859;-66
2021/09/05 00:07:03;;;;;;;14.68;7.65;;;;;;;9.40;76.83;101128.66;1859983;77;20918;-68
2021/09/05 00:09:31;;;;;;;15.53;7.67;;;;;;;9.37;76.76;101140.59;1859939;77;20832;-67
2021/09/05 00:11:57;;;;;;;17.42;7.12;;;;;;;9.34;76.73;101139.44;1851232;77;20909;-69
2021/09/05 00:14:26;;;;;;;12.50;6.53;;;;;;;9.30;76.71;101138.72;1849028;77;21046;-67
2021/09/05 00:16:54;;;;;;;16.12;6.95;;;;;;;9.26;76.76;101137.63;1849229;77;20960;-68
2021/09/05 00:19:21;;;;;;;11.12;6.42;;;;;;;9.21;76.82;101137.00;1849369;77;22126;-69
2021/09/05 00:21:48;;;;;;;10.98;5.55;;;;;;;9.17;76.84;101147.21;1849031;77;20933;-67
2021/09/05 00:24:16;;;;;;;8.88;6.10;;;;;;;9.13;76.85;101151.26;1849093;77;20972;-67
2021/09/05 00:26:46;;;;;;;9.88;5.42;;;;;;;9.09;76.84;101151.03;1849385;77;21019;-67
2021/09/05 00:29:12;;;;;;;12.40;5.45;;;;;;;9.04;76.92;101149.06;1849078;77;20909;-66
2021/09/05 00:31:38;;;;;;;8.48;4.50;;;;;;;9.01;76.88;101158.84;1849007;77;21947;-68
2021/09/05 00:34:05;;;;;;;7.08;4.33;;;;;;;8.96;76.82;101156.42;1849344;76;20995;-67
2021/09/05 00:36:35;;;;;;;8.90;4.53;;;;;;;8.93;76.85;101155.23;1849151;77;21012;-68
2021/09/05 00:39:07;;;;;;;8.95;5.55;;;;;;;8.91;76.91;101157.06;1848994;77;20846;-67
2021/09/05 00:41:34;;;;;;;6.10;3.80;;;;;;;8.87;76.93;101156.38;1849182;77;20904;-67
2021/09/05 00:44:08;;;;;;;5.62;3.70;;;;;;;8.85;76.88;101156.05;1849513;76;22103;-69
2021/09/05 00:46:37;;;;;;;7.58;4.37;;;;;;;8.81;76.86;101159.25;1849032;77;20901;-68
2021/09/05 00:49:05;;;;;;;6.50;4.40;;;;;;;8.81;76.84;101161.02;1849449;77;20909;-68
2021/09/05 00:51:37;;;;;;;6.30;4.60;;;;;;;8.77;76.81;101160.77;1849024;77;20854;-68
2021/09/05 00:54:08;;;;;;;6.05;4.08;;;;;;;8.74;76.84;101167.41;1849024;77;21396;-68
2021/09/05 00:56:38;;;;;;;7.15;4.85;;;;;;;8.70;76.82;101164.94;1849239;77;21588;-68
2021/09/05 00:59:15;;;;;;;10.78;7.12;;;;;;;8.67;76.89;101167.70;1849144;77;20944;-67
2021/09/05 01:01:41;;;;;;;12.80;8.15;;;;;;;8.64;76.92;101161.28;1849050;77;20866;-68
2021/09/05 01:04:10;;;;;;;13.20;7.37;;;;;;;8.60;76.83;101162.33;1849084;77;20924;-67
2021/09/05 01:06:40;;;;;;;12.50;7.45;;;;;;;8.59;76.79;101165.03;1849233;77;20893;-68
2021/09/05 01:09:08;;;;;;;11.38;7.08;;;;;;;8.53;76.81;101166.13;1849599;77;21819;-68
2021/09/05 01:11:37;;;;;;;13.38;8.50;;;;;;;8.49;76.78;101175.01;1854720;76;20889;-69
2021/09/05 01:14:07;;;;;;;10.68;5.85;;;;;;;8.45;76.85;101172.16;1859777;77;20879;-68
2021/09/05 01:16:38;;;;;;;12.50;6.40;;;;;;;8.39;76.91;101173.22;1859798;77;20958;-68
2021/09/05 01:19:25;;;;;;;9.20;5.83;;;;;;;8.35;76.94;101178.64;1855855;77;20977;-69
2021/09/05 01:22:07;;;;;;;10.10;5.15;;;;;;;8.32;77.06;101186.62;1856561;77;20923;-68
2021/09/05 01:25:44;;;;;;;7.95;4.85;;;;;;;8.29;77.00;101185.83;1798766;79;23268;-68
2021/09/05 01:28:29;;;;;;;8.25;4.80;;;;;;;8.19;76.85;101187.57;1758029;80;20932;-68
2021/09/05 01:31:18;;;;;;;9.73;4.83;;;;;;;8.13;76.80;101192.58;1641803;85;21647;-68
2021/09/05 01:34:03;;;;;;;8.90;4.92;;;;;;;8.08;76.90;101188.84;1641530;86;20907;-68
2021/09/05 01:36:49;;;;;;;8.65;4.90;;;;;;;8.03;77.03;101187.34;1639305;86;21022;-69
2021/09/05 01:39:34;;;;;;;9.58;5.15;;;;;;;7.97;77.12;101189.73;1639147;86;20970;-69
2021/09/05 01:42:01;;;;;;;8.05;5.87;;;;;;;7.93;77.36;101201.67;1639307;86;21449;-69
2021/09/05 01:44:40;;;;;;;7.42;4.80;;;;;;;7.86;77.72;101200.59;1639053;86;21912;-69
2021/09/05 01:47:18;;;;;;;9.53;5.33;;;;;;;7.81;77.90;101199.94;1639328;87;20958;-69
2021/09/05 01:50:04;;;;;;;14.07;5.75;;;;;;;7.78;78.15;101201.81;1639220;86;20875;-68
2021/09/05 01:52:33;;;;;;;9.55;5.87;;;;;;;7.74;78.21;101206.32;1626694;87;20876;-68
2021/09/05 01:55:18;;;;;;;9.00;5.95;;;;;;;7.70;78.20;101211.26;1639209;86;20982;-68
2021/09/05 01:57:47;;;;;;;9.38;5.22;;;;;;;7.66;78.20;101205.75;1626794;87;21494;-68
2021/09/05 02:00:16;;;;;;;10.98;5.42;;;;;;;7.62;78.09;101212.00;1641421;86;20998;-68
2021/09/05 02:02:45;;;;;;;7.65;4.72;;;;;;;7.58;77.93;101214.32;1670284;83;20943;-68
2021/09/05 02:05:26;;;;;;;8.10;4.55;;;;;;;7.51;77.89;101211.09;1661723;82;21414;-68
2021/09/05 02:08:11;;;;;;;12.68;5.60;;;;;;;7.47;77.83;101213.45;1709344;84;20947;-69
2021/09/05 02:10:42;;;;;;;7.40;5.85;;;;;;;7.42;77.94;101209.67;1686429;84;21247;-68
2021/09/05 02:13:26;;;;;;;10.75;5.12;;;;;;;7.40;78.04;101218.47;1708178;84;20979;-68
2021/09/05 02:15:54;;;;;;;8.43;4.97;;;;;;;7.35;78.16;101221.25;1706309;84;21366;-68
2021/09/05 02:18:23;;;;;;;7.33;4.90;;;;;;;7.33;78.27;101223.53;1706529;84;20950;-69
2021/09/05 02:20:56;;;;;;;6.55;4.37;;;;;;;7.30;78.41;101228.88;1707913;82;20911;-69
2021/09/05 02:23:40;;;;;;;11.05;4.62;;;;;;;7.28;78.45;101240.66;1708790;83;21140;-70
2021/09/05 02:26:08;;;;;;;9.83;6.00;;;;;;;7.25;78.40;101231.65;1694388;84;21126;-69
2021/09/05 02:28:53;;;;;;;;;;;;;;;7.21;78.28;101236.58;1699200;84;20876;-69
2021/09/05 02:31:37;;;;;;;7.30;4.87;;;;;;;7.17;78.15;101234.98;1694145;83;20213;-69
2021/09/05 02:34:06;;;;;;;9.75;4.53;;;;;;;7.12;78.19;101237.75;1685753;84;20999;-69
2021/09/05 02:36:35;;;;;;;8.48;4.62;;;;;;;7.08;78.41;101241.37;1693493;84;21181;-69
2021/09/05 02:39:09;;;;;;;6.90;4.45;;;;;;;7.06;78.55;101251.00;1677168;84;21035;-69
2021/09/05 02:41:50;;;;;;;9.15;5.22;;;;;;;7.04;78.59;101257.56;1692912;83;20998;-69
2021/09/05 02:44:34;;;;;;;6.92;4.03;;;;;;;7.01;78.58;101252.47;1693449;83;20932;-69
2021/09/05 02:47:06;;;;;;;5.33;3.60;;;;;;;6.99;78.59;101255.58;1689522;84;21051;-67
2021/09/05 02:49:44;;;;;;;6.42;3.90;;;;;;;6.96;78.57;101255.70;1693673;84;21759;-69
2021/09/05 02:52:20;;;;;;;8.18;4.35;;;;;;;6.95;78.43;101264.41;1693816;84;20960;-68
2021/09/05 02:54:52;;;;;;;8.18;3.05;;;;;;;6.92;78.34;101256.70;1692519;84;20951;-68
2021/09/05 02:57:21;;;;;;;8.95;3.87;;;;;;;6.93;78.42;101258.39;1693979;83;21418;-69
2021/09/05 03:00:03;;;;;;;5.67;3.77;;;;;;;6.94;78.48;101265.33;1693939;84;21545;-68
2021/09/05 03:02:37;;;;;;;4.97;3.75;;;;;;;6.96;78.56;101272.65;1693569;84;26468;-68
2021/09/05 03:05:23;;;;;;;9.73;4.03;;;;;;;6.99;78.74;101278.20;1696158;84;20940;-68
2021/09/05 03:08:07;;;;;;;6.10;3.70;;;;;;;7.05;78.68;101286.67;1673018;84;21019;-67
2021/09/05 03:10:46;;;;;;;6.72;3.85;;;;;;;7.13;78.43;101279.87;1695285;83;20956;-67
2021/09/05 03:13:32;;;;;;;5.70;4.05;;;;;;;7.17;78.00;101280.63;1696126;83;21497;-67
2021/09/05 03:16:01;;;;;;;10.93;4.42;;;;;;;7.19;78.14;101282.73;1678565;84;21373;-67
2021/09/05 03:18:31;;;;;;;12.25;5.08;;;;;;;7.26;77.93;101288.12;1693636;83;21000;-68
2021/09/05 03:21:16;;;;;;;17.87;6.28;;;;;;;7.32;77.50;101287.06;1696122;84;21545;-68
2021/09/05 03:23:50;;;;;;;15.32;5.80;;;;;;;7.36;76.98;101285.59;1668990;84;20917;-68
2021/09/05 03:26:34;;;;;;;13.93;6.53;;;;;;;7.39;76.74;101290.69;1696090;83;21418;-69
2021/09/05 03:29:14;;;;;;;16.50;6.75;;;;;;;7.42;76.50;101291.88;1692017;84;21174;-69
2021/09/05 03:31:59;;;;;;;22.42;8.93;;;;;;;7.44;76.35;101297.05;1696258;84;20956;-70
2021/09/05 03:34:29;;;;;;;19.75;7.25;;;;;;;7.45;76.11;101300.07;1693369;83;20951;-69
2021/09/05 03:37:00;;;;;;;31.82;8.80;;;;;;;7.44;76.22;101299.66;1693354;84;20932;-69
2021/09/05 03:39:29;;;;;;;30.62;10.82;;;;;;;7.44;76.31;101296.59;1694221;84;21445;-69
2021/09/05 03:42:01;;;;;;;30.10;10.55;;;;;;;7.48;76.23;101302.09;1691435;84;21129;-67
2021/09/05 03:44:44;;;;;;;47.98;15.45;;;;;;;7.53;75.98;101312.83;1694126;84;21346;-68
2021/09/05 03:47:31;;;;;;;84.83;23.75;;;;;;;7.57;75.68;101318.34;1696082;84;21098;-69
2021/09/05 03:50:06;;;;;;;172.30;47.23;;;;;;;7.58;75.47;101321.33;1693721;84;20909;-69
2021/09/05 03:52:34;;;;;;;180.15;49.90;;;;;;;7.59;75.48;101329.12;1696023;84;20960;-69
2021/09/05 03:55:05;;;;;;;125.15;35.40;;;;;;;7.61;75.76;101332.52;1696072;84;21221;-68
2021/09/05 03:57:32;;;;;;;75.42;23.87;;;;;;;7.63;75.95;101334.63;1696026;84;21441;-69
2021/09/05 04:00:00;;;;;;;56.05;17.67;;;;;;;7.66;76.15;101342.34;1696097;84;20952;-69
2021/09/05 04:02:27;;;;;;;45.58;16.17;;;;;;;7.71;76.31;101349.16;1696166;84;20980;-69
2021/09/05 04:04:54;;;;;;;35.30;12.80;;;;;;;7.75;76.41;101350.75;1696334;84;21401;-69
2021/09/05 04:07:24;;;;;;;38.90;11.18;;;;;;;7.81;76.64;101355.30;1696086;84;21132;-68
2021/09/05 04:10:09;;;;;;;26.48;9.73;;;;;;;7.88;76.72;101357.23;1696234;84;21039;-70
2021/09/05 04:12:40;;;;;;;23.62;8.05;;;;;;;7.94;76.66;101357.44;1695986;83;21435;-69
2021/09/05 04:15:09;;;;;;;34.00;14.40;;;;;;;8.01;76.58;101349.80;1696217;83;20989;-69
2021/09/05 04:17:37;;;;;;;84.80;26.10;;;;;;;8.07;76.56;101352.16;1696044;84;20991;-70
2021/09/05 04:20:05;;;;;;;76.82;22.40;;;;;;;8.13;76.40;101359.77;1696369;84;21582;-70
2021/09/05 04:22:34;;;;;;;66.75;24.50;;;;;;;8.19;76.20;101359.54;1696055;83;21422;-70
2021/09/05 04:25:03;;;;;;;54.67;21.50;;;;;;;8.25;76.00;101353.24;1697510;83;20931;-71
2021/09/05 04:27:29;;;;;;;38.78;17.35;;;;;;;8.30;75.78;101361.75;1711109;82;21023;-67
2021/09/05 04:29:56;;;;;;;36.93;17.82;;;;;;;8.36;75.65;101354.98;1701533;83;20912;-67
2021/09/05 04:32:25;;;;;;;34.58;16.93;;;;;;;8.44;75.52;101363.85;1711358;82;21564;-67
2021/09/05 04:34:52;;;;;;;23.55;12.23;;;;;;;8.50;75.30;101351.39;1702034;84;20916;-68
2021/09/05 04:37:19;;;;;;;23.62;12.47;;;;;;;8.58;75.26;101356.33;1711318;82;21412;-67
2021/09/05 04:39:50;;;;;;;22.20;9.80;;;;;;;8.66;75.31;101363.39;1701602;84;21465;-66
2021/09/05 04:42:16;;;;;;;17.10;8.95;;;;;;;8.78;75.19;101360.77;1711273;83;21551;-67
2021/09/05 04:44:44;;;;;;;14.28;5.67;;;;;;;8.97;75.01;101364.77;1701683;84;21204;-67
2021/09/05 04:47:12;;;;;;;16.67;7.28;;;;;;;9.19;74.51;101354.72;1711234;83;20880;-66
2021/09/05 04:49:38;;;;;;;10.88;6.62;;;;;;;9.51;74.09;101362.02;1701622;84;21537;-66
2021/09/05 04:52:06;;;;;;;17.90;7.33;;;;;;;9.87;72.91;101358.71;1711248;83;20923;-68
2021/09/05 04:54:34;;;;;;;17.48;6.87;;;;;;;10.30;72.07;101358.06;1701641;84;20951;-68
2021/09/05 04:57:01;;;;;;;17.55;8.60;;;;;;;10.95;70.77;101366.29;1711309;83;21115;-66
2021/09/05 04:59:28;;;;;;;13.95;6.75;;;;;;;11.79;69.08;101365.05;1701468;83;21453;-67
2021/09/05 05:01:55;;;;;;;12.37;6.42;;;;;;;12.71;66.97;101362.27;1711691;82;20935;-68
2021/09/05 05:04:22;;;;;;;14.03;5.97;;;;;;;13.63;64.60;101360.37;1701614;83;20943;-68
2021/09/05 05:06:50;;;;;;;10.90;5.60;;;;;;;14.47;62.17;101355.55;1711232;83;20971;-67
2021/09/05 05:09:19;;;;;;;8.95;5.03;;;;;;;15.24;60.28;101354.93;1701503;84;20999;-66
2021/09/05 05:11:45;;;;;;;10.18;4.90;;;;;;;16.02;57.79;101364.06;1711247;82;20951;-67
2021/09/05 05:14:14;;;;;;;7.20;4.15;;;;;;;16.77;54.98;101355.13;1701674;84;21485;-68
2021/09/05 05:16:41;;;;;;;6.20;2.70;;;;;;;17.46;51.82;101359.19;1711264;83;20936;-68
2021/09/05 05:19:08;;;;;;;5.87;3.60;;;;;;;18.07;49.63;101347.40;1701860;84;21635;-66
2021/09/05 05:21:35;;;;;;;6.65;2.92;;;;;;;18.64;47.81;101353.77;1711339;83;21152;-69
2021/09/05 05:24:03;;;;;;;8.00;3.30;;;;;;;19.20;46.47;101345.20;1701479;84;21506;-67
2021/09/05 05:26:30;;;;;;;3.77;2.95;;;;;;;19.70;45.12;101356.47;1703611;83;20939;-67
2021/09/05 05:28:57;;;;;;;6.75;3.40;;;;;;;20.15;44.05;101347.61;1695967;84;21019;-68
2021/09/05 05:31:24;;;;;;;5.67;2.70;;;;;;;20.57;43.38;101351.42;1695980;84;21445;-67
2021/09/05 05:33:51;;;;;;;4.85;2.83;;;;;;;21.01;42.15;101348.30;1696313;84;21536;-67
2021/09/05 05:36:17;;;;;;;6.28;2.25;;;;;;;21.50;41.00;101353.94;1696046;84;20975;-68
2021/09/05 05:38:44;;;;;;;3.42;1.90;;;;;;;21.92;39.81;101348.61;1696275;84;21449;-67
2021/09/05 05:41:13;;;;;;;3.50;2.10;;;;;;;22.28;38.54;101345.57;1696072;83;20920;-66
2021/09/05 05:43:39;;;;;;;3.10;1.95;;;;;;;22.65;37.49;101350.43;1696015;84;20975;-67
2021/09/05 05:46:06;;;;;;;4.60;1.70;;;;;;;22.97;36.83;101350.72;1695959;83;21510;-74
2021/09/05 05:48:34;;;;;;;3.85;2.95;;;;;;;23.30;36.29;101346.97;1696017;83;20916;-75
2021/09/05 05:51:01;;;;;;;3.33;2.27;;;;;;;23.61;35.74;101342.94;1695998;84;20892;-74
2021/09/05 05:53:30;;;;;;;3.67;2.08;;;;;;;23.84;34.77;101344.61;1695933;84;20900;-74
2021/09/05 05:55:58;;;;;;;2.98;2.65;;;;;;;24.20;34.47;101347.90;1696159;84;21003;-74
2021/09/05 05:58:25;;;;;;;3.00;1.80;;;;;;;24.55;33.93;101345.99;1696012;83;22154;-75
2021/09/05 06:00:53;;;;;;;2.37;1.72;;;;;;;24.77;33.76;101348.52;1695922;84;20912;-74
2021/09/05 06:03:21;;;;;;;2.05;1.85;;;;;;;24.95;33.00;101355.06;1697044;84;21003;-75
2021/09/05 06:05:48;;;;;;;2.87;2.17;;;;;;;25.18;32.63;101356.02;1698004;84;21025;-75
2021/09/05 06:08:15;;;;;;;3.92;1.92;;;;;;;25.42;32.06;101360.55;1696559;83;20893;-74
2021/09/05 06:10:44;;;;;;;1.70;1.60;;;;;;;25.64;31.37;101360.33;1696170;84;20951;-75
2021/09/05 06:13:11;;;;;;;4.78;1.87;;;;;;;25.87;30.91;101368.14;1696236;84;20963;-74
2021/09/05 06:15:38;;;;;;;1.82;1.67;;;;;;;26.08;30.17;101368.90;1696110;83;21027;-75
2021/09/05 06:18:08;;;;;;;1.65;1.55;;;;;;;26.28;29.96;101360.75;1696382;83;20977;-74
2021/09/05 06:20:35;;;;;;;2.98;1.65;;;;;;;26.49;29.82;101364.12;1696180;84;20916;-75
2021/09/05 06:23:02;;;;;;;4.10;1.67;;;;;;;26.67;29.04;101359.83;1696406;84;21934;-76
2021/09/05 06:25:29;;;;;;;1.32;1.12;;;;;;;26.86;28.45;101361.20;1697194;83;20924;-73
2021/09/05 06:27:57;;;;;;;3.85;2.40;;;;;;;27.05;27.44;101365.23;1711290;82;21031;-75
2021/09/05 06:30:24;;;;;;;4.85;1.42;;;;;;;27.14;27.13;101371.38;1701728;84;20928;-72
2021/09/05 06:32:51;;;;;;;3.25;1.50;;;;;;;27.22;27.17;101368.13;1711698;83;20935;-74
2021/09/05 06:35:18;;;;;;;5.30;1.65;;;;;;;27.22;26.54;101368.64;1701622;84;22162;-75
2021/09/05 06:37:45;;;;;;;2.08;1.75;;;;;;;27.07;26.90;101375.31;1711499;82;21526;-74
2021/09/05 06:40:13;;;;;;;2.00;1.57;;;;;;;27.13;27.25;101372.41;1701720;84;20892;-74
2021/09/05 06:42:40;;;;;;;5.28;3.42;;;;;;;27.32;27.17;101371.06;1711405;82;21006;-74
2021/09/05 06:45:07;;;;;;;10.48;8.58;;;;;;;27.49;27.00;101373.91;1701793;84;20924;-74
2021/09/05 06:47:34;;;;;;;13.85;12.33;;;;;;;27.65;26.83;101375.59;1711650;83;21117;-74
2021/09/05 06:50:01;;;;;;;5.17;4.67;;;;;;;27.85;26.73;101371.32;1701650;84;20948;-76
2021/09/05 06:52:28;;;;;;;9.98;8.95;;;;;;;28.06;26.71;101379.17;1711446;82;20971;-75
2021/09/05 06:54:56;;;;;;;8.58;7.53;;;;;;;28.22;26.47;101381.64;1701537;83;20971;-74
2021/09/05 06:57:23;;;;;;;5.40;3.80;;;;;;;28.38;26.43;101373.81;1711348;82;20892;-74
2021/09/05 06:59:50;;;;;;;7.40;5.22;;;;;;;28.57;25.92;101376.45;1701777;84;22014;-75
2021/09/05 07:02:20;;;;;;;5.12;1.95;;;;;;;28.73;26.04;101375.34;1711247;83;21011;-75
2021/09/05 07:04:48;;;;;;;1.80;1.70;;;;;;;28.82;24.96;101374.18;1701572;84;21449;-73
2021/09/05 07:07:15;;;;;;;4.97;1.80;;;;;;;28.66;24.80;101375.28;1711280;82;21010;-75
2021/09/05 07:09:44;;;;;;;2.05;1.67;;;;;;;28.66;25.14;101377.16;1701573;83;20944;-74
2021/09/05 07:12:11;;;;;;;2.35;2.10;;;;;;;28.77;25.18;101377.98;1711140;82;21488;-71
2021/09/05 07:14:38;;;;;;;3.98;2.33;;;;;;;28.95;25.23;101384.27;1701623;84;21031;-74
2021/09/05 07:17:06;;;;;;;2.00;1.62;;;;;;;29.14;25.19;101382.77;1711177;82;21489;-72
2021/09/05 07:19:33;;;;;;;2.67;1.70;;;;;;;29.35;24.90;101384.61;1701601;83;21065;-70
2021/09/05 07:22:00;;;;;;;1.60;1.25;;;;;;;29.53;24.17;101382.74;1711160;82;21141;-69
2021/09/05 07:24:28;;;;;;;3.65;1.55;;;;;;;29.72;23.90;101377.97;1701640;83;21623;-70
2021/09/05 07:26:55;;;;;;;2.98;1.90;;;;;;;29.95;23.99;101384.97;1717897;82;20935;-70
2021/09/05 07:29:22;;;;;;;6.72;1.37;;;;;;;30.19;23.78;101382.22;1692871;84;20955;-72
2021/09/05 07:31:50;;;;;;;3.70;1.60;;;;;;;30.32;23.67;101382.29;1692803;83;20938;-72
2021/09/05 07:34:18;;;;;;;2.65;1.25;;;;;;;30.36;23.13;101382.73;1692948;83;20982;-70
2021/09/05 07:36:44;;;;;;;4.33;1.42;;;;;;;30.34;22.85;101379.39;1692803;83;21065;-67
2021/09/05 07:39:11;;;;;;;1.52;1.22;;;;;;;30.27;22.43;101382.58;1692910;83;20966;-69
2021/09/05 07:41:38;;;;;;;2.15;1.67;;;;;;;30.26;22.77;101386.30;1692941;83;21002;-69
2021/09/05 07:44:05;;;;;;;1.40;1.30;;;;;;;30.38;22.67;101382.53;1692750;83;20859;-70
2021/09/05 07:46:32;;;;;;;2.30;1.65;;;;;;;30.49;22.52;101380.58;1692975;84;20864;-67
2021/09/05 07:48:58;;;;;;;1.40;1.30;;;;;;;30.55;21.83;101377.06;1692939;84;21142;-67
2021/09/05 07:51:25;;;;;;;2.08;1.22;;;;;;;30.32;21.89;101380.11;1692793;83;21508;-67
2021/09/05 07:53:54;;;;;;;1.10;0.98;;;;;;;30.22;22.02;101383.19;1692831;83;20879;-69
2021/09/05 07:56:21;;;;;;;1.80;1.10;;;;;;;30.19;21.86;101387.63;1692875;84;20899;-69
2021/09/05 07:58:48;;;;;;;1.85;0.90;;;;;;;30.08;21.57;101389.08;1692804;84;20959;-68
2021/09/05 08:01:15;;;;;;;2.20;1.00;;;;;;;30.06;21.45;101382.17;1692810;83;21357;-67
2021/09/05 08:03:43;;;;;;;0.75;0.50;;;;;;;30.01;21.17;101385.48;1693161;83;20935;-69
2021/09/05 08:06:10;;;;;;;1.57;0.70;;;;;;;30.05;21.51;101381.88;1693298;83;20939;-67
2021/09/05 08:08:37;;;;;;;2.35;0.80;;;;;;;30.01;21.75;101386.02;1692756;83;20911;-66
2021/09/05 08:11:04;;;;;;;0.88;0.68;;;;;;;29.79;21.78;101383.94;1692961;83;20871;-66
2021/09/05 08:13:32;;;;;;;2.65;0.90;;;;;;;29.60;21.09;101385.48;1692861;84;22000;-71
2021/09/05 08:16:01;;;;;;;0.70;0.70;;;;;;;29.44;21.33;101383.41;1692840;84;20899;-66
2021/09/05 08:18:37;;;;;;;2.35;0.90;;;;;;;29.52;21.74;101379.70;1721872;82;20912;-70
2021/09/05 08:21:05;;;;;;;2.75;1.00;;;;;;;29.57;20.96;101388.56;1721762;82;20911;-68
2021/09/05 08:23:33;;;;;;;1.62;0.65;;;;;;;29.26;20.86;101389.32;1693005;83;20968;-68
2021/09/05 08:25:59;;;;;;;2.08;0.93;;;;;;;29.22;21.21;101385.34;1692728;83;21560;-68
2021/09/05 08:28:26;;;;;;;2.27;0.68;;;;;;;29.42;21.17;101382.77;1692991;83;20875;-68
2021/09/05 08:30:55;;;;;;;0.95;0.82;;;;;;;29.53;20.37;101384.09;1692646;84;21501;-68
2021/09/05 08:33:22;;;;;;;1.25;0.60;;;;;;;29.75;19.80;101383.52;1692255;84;21386;-68
2021/09/05 08:35:49;;;;;;;0.82;0.60;;;;;;;29.90;19.57;101391.48;1692437;83;20958;-68
2021/09/05 08:38:16;;;;;;;0.65;0.53;;;;;;;29.92;19.24;101382.13;1693075;83;21883;-68
2021/09/05 08:40:46;;;;;;;0.98;0.60;;;;;;;29.72;19.56;101383.38;1692931;84;20899;-68
2021/09/05 08:43:16;;;;;;;0.95;0.60;;;;;;;29.82;19.71;101380.33;1693168;83;20876;-69
2021/09/05 08:45:45;;;;;;;0.80;0.50;;;;;;;29.79;19.48;101380.70;1692706;84;21364;-68
2021/09/05 08:48:16;;;;;;;1.17;0.85;;;;;;;29.48;19.55;101377.94;1693045;84;20954;-70
2021/09/05 08:50:43;;;;;;;2.20;0.50;;;;;;;29.12;20.13;101386.19;1692801;83;21541;-68
2021/09/05 08:53:10;;;;;;;0.60;0.50;;;;;;;28.81;20.21;101381.11;1692742;83;21491;-68
2021/09/05 08:55:37;;;;;;;0.62;0.60;;;;;;;28.67;20.40;101389.09;1692723;83;20971;-67
2021/09/05 08:58:06;;;;;;;0.78;0.78;;;;;;;28.65;20.82;101388.97;1692734;83;20927;-68
2021/09/05 09:00:33;;;;;;;3.87;1.12;;;;;;;28.81;21.17;101394.09;1692807;83;21002;-67
2021/09/05 09:03:01;;;;;;;2.35;0.60;;;;;;;29.13;20.28;101391.92;1693087;84;21506;-69
2021/09/05 09:05:34;;;;;;;0.60;0.60;;;;;;;29.36;19.25;101384.91;1692735;83;21001;-68
2021/09/05 09:08:07;;;;;;;3.27;0.90;;;;;;;29.48;19.91;101382.48;1693204;83;21006;-68
2021/09/05 09:10:59;;;;;;;0.90;0.57;;;;;;;29.53;20.05;101388.97;1692689;83;21002;-68
2021/09/05 09:13:38;;;;;;;0.85;0.55;;;;;;;29.68;19.94;101390.70;1693030;83;20910;-68
2021/09/05 09:16:12;;;;;;;0.80;0.60;;;;;;;29.46;19.20;101389.45;1692969;83;21834;-68
2021/09/05 09:18:41;;;;;;;0.80;0.70;;;;;;;29.28;20.33;101392.66;1692717;84;20941;-67
2021/09/05 09:21:11;;;;;;;2.50;0.90;;;;;;;29.37;19.74;101384.39;1692977;83;20979;-69
2021/09/05 09:23:39;;;;;;;1.52;0.80;;;;;;;29.45;20.15;101386.42;1690560;83;20911;-68
2021/09/05 09:26:08;;;;;;;1.40;0.65;;;;;;;29.44;19.81;101383.94;1721743;83;20891;-67
2021/09/05 09:28:47;;;;;;;2.45;1.17;;;;;;;29.13;19.98;101377.06;1692797;83;21557;-69
2021/09/05 09:31:21;;;;;;;1.92;0.70;;;;;;;28.81;20.38;101383.81;1692984;83;21453;-68
2021/09/05 09:33:53;;;;;;;1.35;0.80;;;;;;;28.05;21.32;101383.70;1692786;83;21018;-69
2021/09/05 09:36:24;;;;;;;1.70;1.00;;;;;;;27.35;21.95;101390.40;1693151;84;20883;-67
2021/09/05 09:39:00;;;;;;;21.33;0.93;;;;;;;26.73;22.42;101386.54;1692873;83;20998;-69
2021/09/05 09:41:29;;;;;;;0.65;0.50;;;;;;;26.08;22.41;101396.64;1693249;84;21467;-68
2021/09/05 09:44:02;;;;;;;0.90;0.80;;;;;;;25.80;23.28;101388.98;1692820;84;20939;-68
2021/09/05 09:46:32;;;;;;;0.77;0.60;;;;;;;25.82;24.03;101386.13;1693409;83;20923;-68
2021/09/05 09:49:01;;;;;;;3.65;1.20;;;;;;;25.94;23.93;101392.81;1690653;84;20912;-68
2021/09/05 09:51:28;;;;;;;0.50;0.42;;;;;;;26.21;23.60;101399.61;1722079;82;20939;-68
2021/09/05 09:53:55;;;;;;;1.67;0.50;;;;;;;26.53;23.89;101392.35;1692857;83;21477;-69
2021/09/05 09:56:22;;;;;;;2.65;0.70;;;;;;;26.93;23.07;101385.02;1693134;83;20899;-69
2021/09/05 09:58:51;;;;;;;1.02;0.60;;;;;;;27.45;22.52;101386.91;1692831;84;21006;-68
2021/09/05 10:01:24;;;;;;;1.20;0.72;;;;;;;27.97;22.18;101396.45;1693125;83;21511;-69
2021/09/05 10:03:52;;;;;;;0.82;0.72;;;;;;;28.34;21.89;101400.02;1692987;83;26424;-68
2021/09/05 10:06:21;;;;;;;0.60;0.60;;;;;;;28.69;20.98;101399.70;1693145;83;21118;-68
2021/09/05 10:08:48;;;;;;;1.15;0.45;;;;;;;28.99;20.84;101392.27;1693036;83;21043;-69
2021/09/05 10:11:16;;;;;;;5.10;1.12;;;;;;;29.07;20.62;101396.20;1693235;84;20931;-68
2021/09/05 10:13:45;;;;;;;1.42;0.85;;;;;;;29.13;20.61;101391.92;1721938;83;20938;-68
2021/09/05 10:16:13;;;;;;;0.75;0.70;;;;;;;28.97;20.00;101397.06;1721724;82;20863;-68
2021/09/05 10:18:48;;;;;;;0.70;0.62;;;;;;;28.73;20.14;101384.80;1692963;83;21373;-70
2021/09/05 10:21:18;;;;;;;0.93;0.80;;;;;;;28.35;20.85;101398.98;1692967;83;20879;-70
2021/09/05 10:23:55;;;;;;;0.80;0.80;;;;;;;27.89;21.24;101406.32;1692955;83;20982;-70
2021/09/05 10:26:22;;;;;;;2.58;0.70;;;;;;;27.46;21.51;101405.28;1693104;83;20994;-68
2021/09/05 10:28:54;;;;;;;0.70;0.60;;;;;;;27.12;21.59;101407.90;1692964;83;21440;-69
2021/09/05 10:31:31;;;;;;;0.75;0.50;;;;;;;26.80;21.85;101404.98;1693147;83;21144;-69
2021/09/05 10:33:59;;;;;;;1.40;0.70;;;;;;;26.76;22.16;101399.11;1692884;83;20908;-69
2021/09/05 10:36:27;;;;;;;1.77;0.75;;;;;;;26.86;22.18;101396.20;1693131;83;20888;-70
2021/09/05 10:39:10;;;;;;;0.47;0.47;;;;;;;27.04;22.45;101400.75;1692767;83;20887;-68
2021/09/05 10:41:50;;;;;;;2.72;0.50;;;;;;;27.23;22.32;101398.58;1691421;83;20872;-69
2021/09/05 10:44:16;;;;;;;1.07;0.60;;;;;;;26.94;21.62;101404.70;1720288;82;21195;-68
2021/09/05 10:46:48;;;;;;;0.70;0.70;;;;;;;26.50;22.11;101400.76;1692830;84;20928;-68
2021/09/05 10:49:16;;;;;;;2.12;0.70;;;;;;;26.01;22.86;101409.08;1693011;83;20959;-69
2021/09/05 10:51:50;;;;;;;1.12;0.90;;;;;;;25.60;23.27;101404.66;1693034;84;21374;-69
2021/09/05 10:54:27;;;;;;;1.00;0.80;;;;;;;25.52;24.18;101398.46;1692845;83;21051;-69
2021/09/05 10:56:57;;;;;;;1.55;0.78;;;;;;;25.64;24.37;101389.05;1688601;84;21154;-70
2021/09/05 10:59:26;;;;;;;1.12;1.00;;;;;;;25.89;23.44;101380.92;1693071;83;20938;-68
2021/09/05 11:01:56;;;;;;;3.55;1.02;;;;;;;26.10;23.56;101389.73;1692955;83;21071;-69
2021/09/05 11:04:29;;;;;;;0.55;0.50;;;;;;;26.39;23.01;101390.41;1692922;84;20903;-72
2021/09/05 11:07:03;;;;;;;1.40;1.07;;;;;;;26.63;22.36;101388.11;1692974;83;21413;-68
2021/09/05 11:09:39;;;;;;;1.40;1.07;;;;;;;26.85;21.88;101384.56;1692978;84;21172;-69
2021/09/05 11:12:23;;;;;;;2.65;0.60;;;;;;;27.02;21.11;101383.11;1721732;82;20959;-68
2021/09/05 11:14:56;;;;;;;2.00;0.65;;;;;;;27.22;21.39;101386.16;1722314;83;21424;-69
2021/09/05 11:17:32;;;;;;;1.02;0.70;;;;;;;27.10;21.33;101392.44;1692751;83;21373;-68
2021/09/05 11:20:08;;;;;;;2.65;0.82;;;;;;;26.85;21.85;101391.30;1692804;83;21500;-69
2021/09/05 11:22:43;;;;;;;1.90;0.70;;;;;;;26.44;22.13;101394.77;1693270;83;21138;-69
2021/09/05 11:25:16;;;;;;;0.78;0.70;;;;;;;26.15;22.24;101400.30;1693031;83;20970;-68
2021/09/05 11:28:01;;;;;;;0.80;0.80;;;;;;;26.01;23.24;101398.33;1692648;83;20997;-69
2021/09/05 11:30:36;;;;;;;1.98;0.95;;;;;;;25.88;22.74;101392.19;1693182;83;20915;-68
2021/09/05 11:33:08;;;;;;;1.20;0.80;;;;;;;25.82;22.99;101389.65;1693070;84;20920;-68
2021/09/05 11:35:43;;;;;;;1.57;0.90;;;;;;;25.76;22.47;101382.78;1693649;84;21147;-67
2021/09/05 11:38:14;;;;;;;2.50;1.20;;;;;;;25.60;22.80;101388.53;1692994;83;20986;-69
2021/09/05 11:40:51;;;;;;;2.17;0.90;;;;;;;25.19;23.12;101382.39;1693082;83;21036;-69
2021/09/05 11:43:38;;;;;;;1.25;0.88;;;;;;;24.69;23.78;101385.55;1721774;82;21397;-69
2021/09/05 11:46:17;;;;;;;0.88;0.50;;;;;;;24.24;24.60;101391.31;1722020;82;21425;-69